Shaftsbury, Vermont
Current Conditions -  °F | °C
As of 1:54 PM on Tuesday 27 Jan 2015 (Local Time) from KDDH Reporting Station
Light Snow Light Snow  
Wind Chill: -6°   Ceiling: 1800
Heat Index: 10°   Visibility: 1.2mi
Dew Point:   Wind: 14mph
Humidity: 73%   Direction: 340°NNW
Pressure: 29.72"   Gusts: 21mph
Location:  43.01°N, 73.19°W
Report Text: KDDH 271854Z AUTO 34012G18KT 1 1/4SM -SN OVC018 M12/M16 A2972 RMK AO2 SLP078 P0000 T11221161
Loading
Personal Weather Stations






























Interactive Weather Map New forecast layout! Learn more

10-Day Weather Forecast

Advertisements
Track Severe Weather on mobile